createdAt,value
2018-05-16T00:01:14.247Z,58.81
2018-05-16T00:03:46.803Z,58.82
2018-05-16T00:06:19.334Z,58.68
2018-05-16T00:08:51.834Z,58.73
2018-05-16T00:11:24.356Z,58.66
2018-05-16T00:13:56.859Z,58.70
2018-05-16T00:16:29.379Z,58.95
2018-05-16T00:19:01.903Z,58.74
2018-05-16T00:21:34.448Z,59.13
2018-05-16T00:24:07.030Z,59.07
2018-05-16T00:26:39.587Z,58.80
2018-05-16T00:29:12.094Z,58.65
2018-05-16T00:31:44.622Z,58.80
2018-05-16T00:34:17.128Z,58.93
2018-05-16T00:36:49.673Z,58.88
2018-05-16T00:39:22.184Z,58.88
2018-05-16T00:41:54.707Z,59.07
2018-05-16T00:44:27.215Z,58.94
2018-05-16T00:46:59.733Z,59.24
2018-05-16T00:49:32.249Z,59.33
2018-05-16T00:52:04.849Z,59.43
2018-05-16T00:54:37.442Z,59.42
2018-05-16T00:57:09.988Z,59.42
2018-05-16T00:59:42.506Z,59.27
2018-05-16T01:02:15.046Z,59.16
2018-05-16T01:04:47.564Z,59.03
2018-05-16T01:07:20.111Z,59.29
2018-05-16T01:09:52.654Z,59.27
2018-05-16T01:12:25.193Z,59.45
2018-05-16T01:14:57.696Z,59.33
2018-05-16T01:17:30.231Z,59.69
2018-05-16T01:20:02.749Z,59.23
2018-05-16T01:22:36.752Z,59.39
2018-05-16T01:25:09.288Z,59.59
2018-05-16T01:27:41.837Z,59.57
2018-05-16T01:30:14.367Z,60.12
2018-05-16T01:32:46.907Z,60.29
2018-05-16T01:35:19.422Z,60.39
2018-05-16T01:37:51.988Z,60.72
2018-05-16T01:40:24.515Z,60.78
2018-05-16T01:42:57.066Z,60.57
2018-05-16T01:45:29.621Z,60.43
2018-05-16T01:48:02.165Z,60.43
2018-05-16T01:50:34.692Z,60.70
2018-05-16T01:53:07.341Z,60.47
2018-05-16T01:55:40.091Z,60.17
2018-05-16T01:58:12.640Z,60.52
2018-05-16T02:00:45.162Z,60.51
2018-05-16T02:03:17.690Z,60.63
2018-05-16T02:05:50.204Z,60.54
2018-05-16T02:08:22.732Z,60.69
2018-05-16T02:10:55.276Z,60.68
2018-05-16T02:13:27.796Z,60.56
2018-05-16T02:16:00.311Z,60.70
2018-05-16T02:18:32.836Z,60.93
2018-05-16T02:21:06.771Z,61.05
2018-05-16T02:23:39.535Z,61.02
2018-05-16T02:26:12.092Z,61.15
2018-05-16T02:28:44.632Z,60.94
2018-05-16T02:31:17.154Z,60.59
2018-05-16T02:33:49.697Z,60.54
2018-05-16T02:36:22.210Z,60.52
2018-05-16T02:38:55.495Z,60.80
2018-05-16T02:41:28.009Z,60.77
2018-05-16T02:44:00.563Z,60.85
2018-05-16T02:46:33.090Z,60.62
2018-05-16T02:49:05.650Z,60.73
2018-05-16T02:51:38.193Z,60.98
2018-05-16T02:54:10.745Z,60.99
2018-05-16T02:56:43.323Z,61.23
2018-05-16T02:59:15.853Z,61.12
2018-05-16T03:01:48.389Z,61.08
2018-05-16T03:04:20.907Z,60.99
2018-05-16T03:06:53.445Z,61.10
2018-05-16T03:09:25.981Z,61.34
2018-05-16T03:11:58.518Z,61.22
2018-05-16T03:14:31.504Z,61.25
2018-05-16T03:17:04.032Z,61.52
2018-05-16T03:19:36.862Z,61.47
2018-05-16T03:22:09.390Z,61.43
2018-05-16T03:24:41.897Z,61.44
2018-05-16T03:27:14.447Z,61.44
2018-05-16T03:29:46.963Z,61.42
2018-05-16T03:32:19.480Z,61.49
2018-05-16T03:34:51.992Z,61.43
2018-05-16T03:37:24.516Z,61.21
2018-05-16T03:39:57.036Z,61.13
2018-05-16T03:42:29.581Z,61.25
2018-05-16T03:45:02.074Z,61.52
2018-05-16T03:47:34.614Z,61.21
2018-05-16T03:50:07.593Z,61.66
2018-05-16T03:52:40.130Z,61.67
2018-05-16T03:55:12.707Z,61.97
2018-05-16T04:01:04.219Z,61.77
2018-05-16T04:03:48.676Z,61.77
2018-05-16T04:06:21.181Z,61.80
2018-05-16T04:08:53.719Z,61.85
2018-05-16T04:11:26.232Z,62.09
2018-05-16T04:13:58.756Z,62.17
2018-05-16T04:16:31.258Z,62.07
2018-05-16T04:19:03.786Z,62.19
2018-05-16T04:21:37.690Z,62.07
2018-05-16T04:24:10.231Z,62.19
2018-05-16T04:26:42.776Z,62.14
2018-05-16T04:29:15.320Z,62.57
2018-05-16T04:31:47.869Z,62.72
2018-05-16T04:34:20.417Z,62.63
2018-05-16T04:36:52.928Z,62.64
2018-05-16T04:39:25.481Z,62.84
2018-05-16T04:41:58.025Z,62.90
2018-05-16T04:44:30.571Z,63.01
2018-05-16T04:47:03.100Z,63.36
2018-05-16T04:49:35.761Z,63.42
2018-05-16T04:52:08.298Z,63.59
2018-05-16T04:54:40.902Z,63.64
2018-05-16T04:57:13.449Z,63.57
2018-05-16T04:59:45.997Z,63.41
2018-05-16T05:02:18.531Z,63.41
2018-05-16T05:04:51.081Z,63.51
2018-05-16T05:07:23.596Z,63.65
2018-05-16T05:09:56.156Z,63.67
2018-05-16T05:12:28.685Z,63.68
2018-05-16T05:15:01.225Z,63.73
2018-05-16T05:17:33.743Z,64.43
2018-05-16T05:20:06.949Z,64.21
2018-05-16T05:22:39.501Z,64.00
2018-05-16T05:25:12.037Z,64.33
2018-05-16T05:27:44.627Z,64.58
2018-05-16T05:30:17.235Z,64.71
2018-05-16T05:32:49.746Z,64.70
2018-05-16T05:35:22.290Z,64.63
2018-05-16T05:37:54.828Z,64.67
2018-05-16T05:40:27.343Z,64.58
2018-05-16T05:42:59.887Z,64.39
2018-05-16T05:45:32.399Z,64.47
2018-05-16T05:48:06.225Z,64.85
2018-05-16T05:50:38.808Z,64.57
2018-05-16T05:53:11.367Z,64.37
2018-05-16T05:55:43.939Z,64.56
2018-05-16T05:58:16.510Z,64.77
2018-05-16T06:00:49.051Z,64.76
2018-05-16T06:03:21.620Z,64.50
2018-05-16T06:05:54.151Z,64.34
2018-05-16T06:08:26.693Z,64.11
2018-05-16T06:10:59.233Z,64.01
2018-05-16T06:13:31.800Z,63.55
2018-05-16T06:16:04.386Z,63.39
2018-05-16T06:18:36.945Z,63.08
2018-05-16T06:21:09.462Z,63.40
2018-05-16T06:23:42.023Z,63.70
2018-05-16T06:26:14.536Z,63.53
2018-05-16T06:28:47.089Z,63.59
2018-05-16T06:31:19.605Z,63.05
2018-05-16T06:33:52.162Z,63.04
2018-05-16T06:36:24.682Z,63.04
2018-05-16T06:38:57.220Z,62.81
2018-05-16T06:41:29.768Z,62.21
2018-05-16T06:44:02.297Z,62.02
2018-05-16T06:46:35.002Z,61.83
2018-05-16T06:49:07.559Z,61.97
2018-05-16T06:51:40.097Z,61.73
2018-05-16T06:54:12.665Z,61.24
2018-05-16T06:56:45.191Z,61.26
2018-05-16T06:59:17.756Z,61.37
2018-05-16T07:01:50.279Z,61.20
2018-05-16T07:04:22.832Z,61.01
2018-05-16T07:06:55.344Z,60.85
2018-05-16T07:09:27.894Z,60.72
2018-05-16T07:12:00.408Z,60.12
2018-05-16T07:14:32.941Z,59.12
2018-05-16T07:17:05.676Z,59.12
2018-05-16T07:19:38.668Z,58.44
2018-05-16T07:22:11.560Z,57.77
2018-05-16T07:24:44.812Z,57.11
2018-05-16T07:27:17.333Z,56.44
2018-05-16T07:29:49.880Z,57.01
2018-05-16T07:32:22.463Z,56.73
2018-05-16T07:34:54.977Z,56.25
2018-05-16T07:37:27.489Z,55.83
2018-05-16T07:40:00.064Z,55.77
2018-05-16T07:42:32.583Z,55.17
2018-05-16T07:45:06.415Z,55.17
2018-05-16T07:47:39.804Z,55.42
2018-05-16T07:50:12.360Z,55.02
2018-05-16T07:52:44.896Z,54.88
2018-05-16T07:55:17.505Z,54.70
2018-05-16T07:57:50.107Z,54.04
2018-05-16T08:00:22.621Z,54.04
2018-05-16T08:02:55.152Z,54.41
2018-05-16T08:05:27.692Z,54.52
2018-05-16T08:08:00.218Z,54.31
2018-05-16T08:10:32.767Z,53.61
2018-05-16T08:13:05.486Z,53.39
2018-05-16T08:15:38.053Z,52.33
2018-05-16T08:18:10.599Z,52.88
2018-05-16T08:20:43.180Z,52.44
2018-05-16T08:23:15.703Z,51.55
2018-05-16T08:25:48.261Z,52.21
2018-05-16T08:28:20.795Z,52.43
2018-05-16T08:30:53.327Z,52.99
2018-05-16T08:33:25.829Z,52.90
2018-05-16T08:35:58.355Z,53.68
2018-05-16T08:38:30.879Z,53.73
2018-05-16T08:41:03.409Z,53.42
2018-05-16T08:43:37.074Z,54.02
2018-05-16T08:46:09.638Z,53.78
2018-05-16T08:48:42.172Z,53.74
2018-05-16T08:51:14.710Z,52.54
2018-05-16T08:53:47.317Z,53.09
2018-05-16T08:56:19.823Z,52.50
2018-05-16T08:58:52.354Z,52.22
2018-05-16T09:01:24.859Z,51.55
2018-05-16T09:03:57.382Z,52.44
2018-05-16T09:06:29.900Z,51.63
2018-05-16T09:09:02.439Z,51.74
2018-05-16T09:11:35.778Z,51.30
2018-05-16T09:14:08.318Z,49.99
2018-05-16T09:16:40.877Z,50.10
2018-05-16T09:19:13.419Z,49.41
2018-05-16T09:21:45.966Z,48.83
2018-05-16T09:24:18.490Z,46.69
2018-05-16T09:26:51.016Z,46.92
2018-05-16T09:29:23.541Z,46.86
2018-05-16T09:31:56.045Z,47.11
2018-05-16T09:34:28.568Z,46.87
2018-05-16T09:37:01.087Z,46.65
2018-05-16T09:39:33.607Z,46.73
2018-05-16T09:42:06.757Z,46.99
2018-05-16T09:44:39.297Z,45.83
2018-05-16T09:47:11.866Z,46.92
2018-05-16T09:49:44.412Z,46.32
2018-05-16T09:52:16.924Z,46.31
2018-05-16T09:54:49.465Z,43.83
2018-05-16T09:57:21.971Z,43.47
2018-05-16T09:59:54.496Z,40.72
2018-05-16T10:02:27.002Z,41.47
2018-05-16T10:04:59.545Z,41.40
2018-05-16T10:07:32.047Z,41.24
2018-05-16T10:10:04.632Z,40.73
2018-05-16T10:12:37.207Z,40.95
2018-05-16T10:15:09.825Z,41.82
2018-05-16T10:17:42.585Z,41.66
2018-05-16T10:20:15.162Z,41.28
2018-05-16T10:22:47.631Z,41.44
2018-05-16T10:25:20.149Z,42.85
2018-05-16T10:27:52.657Z,44.26
2018-05-16T10:30:25.199Z,44.20
2018-05-16T10:32:57.703Z,44.90
2018-05-16T10:35:30.237Z,45.03
2018-05-16T10:38:02.741Z,44.65
2018-05-16T10:40:35.671Z,45.27
2018-05-16T10:43:08.297Z,45.25
2018-05-16T10:45:40.843Z,44.31
2018-05-16T10:48:13.367Z,43.72
2018-05-16T10:50:45.910Z,43.47
2018-05-16T10:53:18.421Z,43.18
2018-05-16T10:55:50.947Z,43.11
2018-05-16T10:58:23.443Z,43.24
2018-05-16T11:00:55.969Z,44.74
2018-05-16T11:03:28.591Z,45.60
2018-05-16T11:06:01.039Z,45.64
2018-05-16T11:08:33.540Z,46.14
2018-05-16T11:11:06.465Z,45.52
2018-05-16T11:13:38.997Z,44.96
2018-05-16T11:16:11.525Z,45.04
2018-05-16T11:18:44.096Z,43.63
2018-05-16T11:21:16.634Z,43.81
2018-05-16T11:23:49.183Z,43.58
2018-05-16T11:26:21.731Z,44.00
2018-05-16T11:28:54.243Z,43.70
2018-05-16T11:31:26.769Z,43.31
2018-05-16T11:33:59.291Z,43.02
2018-05-16T11:36:31.823Z,42.36
2018-05-16T11:39:04.334Z,43.02
2018-05-16T11:41:37.095Z,43.12
2018-05-16T11:44:09.740Z,42.97
2018-05-16T11:46:42.255Z,43.70
2018-05-16T11:49:14.811Z,44.25
2018-05-16T11:51:47.361Z,44.47
2018-05-16T11:54:19.876Z,44.64
2018-05-16T11:56:52.404Z,45.81
2018-05-16T11:59:24.900Z,45.53
2018-05-16T12:01:57.421Z,45.33
2018-05-16T12:04:29.947Z,46.48
2018-05-16T12:07:02.462Z,46.77
2018-05-16T12:09:35.058Z,47.23
2018-05-16T12:12:07.836Z,48.06
2018-05-16T12:14:40.416Z,48.83
2018-05-16T12:17:13.033Z,49.00
2018-05-16T12:19:45.559Z,49.26
2018-05-16T12:22:18.085Z,49.05
2018-05-16T12:24:50.601Z,49.71
2018-05-16T12:27:23.125Z,50.06
2018-05-16T12:29:55.649Z,48.48
2018-05-16T12:32:28.178Z,49.93
2018-05-16T12:35:00.703Z,50.02
2018-05-16T12:37:33.218Z,49.27
2018-05-16T12:40:05.817Z,49.01
2018-05-16T12:45:42.996Z,49.74
2018-05-16T12:48:15.585Z,50.12
2018-05-16T12:50:48.111Z,50.52
2018-05-16T12:53:20.620Z,50.91
2018-05-16T12:55:53.145Z,50.77
2018-05-16T12:58:25.684Z,50.87
2018-05-16T13:00:58.209Z,50.49
2018-05-16T13:03:30.713Z,50.72
2018-05-16T13:06:03.229Z,51.59
2018-05-16T13:08:36.341Z,51.65
2018-05-16T13:11:08.890Z,51.32
2018-05-16T13:13:41.543Z,50.35
2018-05-16T13:16:14.676Z,48.90
2018-05-16T13:18:47.443Z,48.96
2018-05-16T13:21:19.968Z,48.96
2018-05-16T13:23:52.487Z,48.63
2018-05-16T13:26:25.009Z,48.04
2018-05-16T13:28:57.523Z,45.96
2018-05-16T13:31:30.041Z,46.49
2018-05-16T13:34:02.560Z,46.14
2018-05-16T13:36:35.141Z,44.77
2018-05-16T13:39:07.653Z,46.43
2018-05-16T13:41:40.340Z,44.03
2018-05-16T13:44:13.075Z,42.83
2018-05-16T13:46:45.600Z,43.26
2018-05-16T13:49:18.212Z,44.41
2018-05-16T13:51:50.731Z,45.30
2018-05-16T13:54:23.241Z,44.34
2018-05-16T13:56:55.765Z,44.55
2018-05-16T13:59:28.260Z,44.47
2018-05-16T14:02:00.786Z,44.22
2018-05-16T14:04:33.285Z,43.68
2018-05-16T14:07:06.053Z,41.96
2018-05-16T14:09:38.563Z,43.80
2018-05-16T14:12:11.096Z,44.02
2018-05-16T14:14:43.606Z,44.12
2018-05-16T14:17:16.163Z,44.40
2018-05-16T14:19:48.668Z,43.79
2018-05-16T14:22:21.182Z,43.77
2018-05-16T14:24:53.691Z,43.79
2018-05-16T14:27:26.209Z,43.70
2018-05-16T14:29:58.727Z,43.07
2018-05-16T14:32:31.246Z,43.60
2018-05-16T14:35:03.748Z,43.60
2018-05-16T14:37:36.292Z,44.46
2018-05-16T14:40:09.105Z,44.65
2018-05-16T14:42:41.773Z,44.75
2018-05-16T14:45:14.225Z,44.32
2018-05-16T14:47:46.793Z,43.88
2018-05-16T14:50:19.346Z,44.59
2018-05-16T14:52:51.874Z,43.60
2018-05-16T14:55:24.415Z,42.84
2018-05-16T14:57:56.944Z,43.26
2018-05-16T15:00:29.461Z,43.97
2018-05-16T15:03:01.988Z,43.76
2018-05-16T15:05:34.501Z,43.76
2018-05-16T15:08:07.301Z,43.98
2018-05-16T15:10:39.821Z,44.42
2018-05-16T15:13:12.358Z,44.75
2018-05-16T15:15:44.894Z,44.31
2018-05-16T15:18:17.429Z,44.14
2018-05-16T15:20:49.967Z,44.80
2018-05-16T15:23:22.467Z,44.92
2018-05-16T15:25:54.991Z,45.24
2018-05-16T15:28:27.507Z,43.39
2018-05-16T15:31:00.041Z,44.51
2018-05-16T15:33:32.547Z,45.23
2018-05-16T15:36:05.360Z,45.09
2018-05-16T15:38:38.207Z,44.95
2018-05-16T15:41:10.756Z,45.38
2018-05-16T15:43:43.273Z,45.89
2018-05-16T15:46:15.831Z,45.43
2018-05-16T15:48:48.322Z,44.97
2018-05-16T15:51:20.840Z,45.18
2018-05-16T15:53:53.343Z,45.71
2018-05-16T15:56:25.881Z,46.59
2018-05-16T15:58:58.618Z,46.28
2018-05-16T16:01:31.144Z,46.42
2018-05-16T16:04:03.647Z,46.10
2018-05-16T16:06:36.316Z,46.16
2018-05-16T16:09:09.106Z,46.35
2018-05-16T16:11:41.786Z,46.58
2018-05-16T16:14:14.316Z,46.91
2018-05-16T16:16:46.866Z,47.50
2018-05-16T16:19:19.369Z,47.30
2018-05-16T16:21:51.906Z,47.34
2018-05-16T16:24:24.526Z,47.69
2018-05-16T16:26:57.051Z,47.24
2018-05-16T16:29:29.551Z,46.61
2018-05-16T16:32:02.084Z,47.36
2018-05-16T16:34:34.603Z,46.65
2018-05-16T16:37:08.014Z,46.53
2018-05-16T16:39:40.523Z,47.00
2018-05-16T16:42:13.420Z,46.44
2018-05-16T16:44:46.132Z,45.49
2018-05-16T16:47:18.619Z,45.50
2018-05-16T16:49:51.131Z,45.23
2018-05-16T16:52:23.656Z,45.56
2018-05-16T16:54:56.172Z,45.50
2018-05-16T16:57:28.691Z,45.87
2018-05-16T17:00:01.290Z,45.78
2018-05-16T17:02:33.745Z,45.98
2018-05-16T17:05:06.394Z,45.86
2018-05-16T17:07:39.003Z,46.05
2018-05-16T17:10:11.765Z,45.58
2018-05-16T17:12:44.366Z,45.73
2018-05-16T17:15:16.931Z,45.59
2018-05-16T17:17:49.467Z,45.86
2018-05-16T17:20:22.019Z,45.50
2018-05-16T17:22:54.523Z,44.66
2018-05-16T17:25:27.026Z,45.22
2018-05-16T17:27:59.540Z,45.40
2018-05-16T17:30:32.054Z,45.28
2018-05-16T17:33:04.597Z,45.20
2018-05-16T17:35:37.150Z,45.43
2018-05-16T17:38:09.854Z,44.76
2018-05-16T17:40:42.419Z,44.27
2018-05-16T17:43:14.994Z,43.02
2018-05-16T17:45:47.546Z,44.21
2018-05-16T17:48:20.071Z,44.11
2018-05-16T17:50:52.573Z,42.77
2018-05-16T17:53:25.101Z,42.68
2018-05-16T17:55:57.616Z,42.50
2018-05-16T17:58:30.153Z,41.43
2018-05-16T18:01:02.662Z,40.72
2018-05-16T18:03:35.579Z,41.17
2018-05-16T18:06:08.102Z,41.35
2018-05-16T18:08:40.783Z,40.22
2018-05-16T18:11:13.292Z,39.45
2018-05-16T18:13:58.411Z,39.49
2018-05-16T18:16:42.914Z,38.91
2018-05-16T18:19:15.476Z,38.91
2018-05-16T18:21:47.992Z,40.07
2018-05-16T18:24:20.531Z,39.17
2018-05-16T18:26:53.051Z,38.78
2018-05-16T18:29:25.618Z,39.00
2018-05-16T18:31:58.101Z,38.71
2018-05-16T18:34:30.788Z,38.14
2018-05-16T18:37:03.296Z,38.64
2018-05-16T18:39:35.870Z,39.00
2018-05-16T18:42:08.513Z,39.50
2018-05-16T18:44:41.108Z,40.65
2018-05-16T18:47:13.605Z,41.00
2018-05-16T18:49:46.128Z,42.54
2018-05-16T18:52:18.624Z,41.40
2018-05-16T18:54:51.147Z,39.72
2018-05-16T18:57:23.647Z,40.13
2018-05-16T18:59:56.185Z,40.35
2018-05-16T19:02:28.683Z,40.96
2018-05-16T19:05:01.209Z,41.20
2018-05-16T19:07:33.717Z,40.65
2018-05-16T19:10:06.293Z,40.25
2018-05-16T19:12:38.861Z,40.52
2018-05-16T19:15:11.586Z,41.14
2018-05-16T19:17:44.212Z,40.74
2018-05-16T19:20:16.709Z,41.18
2018-05-16T19:22:49.237Z,41.77
2018-05-16T19:25:21.737Z,41.77
2018-05-16T19:27:54.271Z,41.55
2018-05-16T19:30:26.772Z,41.67
2018-05-16T19:32:59.380Z,41.79
2018-05-16T19:35:31.832Z,41.87
2018-05-16T19:38:04.414Z,41.80
2018-05-16T19:40:37.361Z,42.06
2018-05-16T19:43:10.273Z,42.28
2018-05-16T19:45:42.776Z,42.54
2018-05-16T19:48:15.316Z,42.81
2018-05-16T19:50:47.824Z,42.27
2018-05-16T19:53:20.349Z,42.19
2018-05-16T19:55:52.857Z,42.14
2018-05-16T19:58:25.378Z,42.42
2018-05-16T20:00:57.883Z,41.80
2018-05-16T20:03:30.451Z,41.61
2018-05-16T20:06:02.957Z,41.65
2018-05-16T20:08:35.764Z,41.62
2018-05-16T20:11:08.474Z,42.21
2018-05-16T20:13:41.493Z,42.70
2018-05-16T20:16:14.005Z,43.02
2018-05-16T20:18:46.521Z,43.55
2018-05-16T20:21:19.020Z,44.31
2018-05-16T20:23:51.641Z,45.21
2018-05-16T20:26:24.069Z,46.55
2018-05-16T20:28:56.593Z,47.17
2018-05-16T20:31:29.100Z,47.45
2018-05-16T20:34:01.628Z,48.08
2018-05-16T20:36:34.130Z,48.62
2018-05-16T20:39:06.718Z,49.31
2018-05-16T20:41:39.432Z,49.60
2018-05-16T20:44:12.135Z,49.79
2018-05-16T20:46:44.650Z,50.30
2018-05-16T20:49:17.173Z,50.55
2018-05-16T20:51:49.684Z,50.92
2018-05-16T20:54:22.203Z,50.81
2018-05-16T20:56:54.700Z,51.07
2018-05-16T20:59:27.227Z,51.16
2018-05-16T21:01:59.727Z,51.20
2018-05-16T21:04:33.008Z,51.30
2018-05-16T21:07:05.563Z,51.46
2018-05-16T21:09:38.105Z,51.55
2018-05-16T21:12:10.690Z,51.66
2018-05-16T21:14:43.166Z,51.70
2018-05-16T21:17:15.675Z,51.96
2018-05-16T21:19:48.214Z,51.72
2018-05-16T21:22:20.725Z,51.64
2018-05-16T21:24:53.256Z,51.90
2018-05-16T21:27:25.766Z,51.89
2018-05-16T21:29:58.289Z,51.67
2018-05-16T21:32:30.806Z,51.58
2018-05-16T21:35:03.331Z,51.66
2018-05-16T21:37:35.836Z,51.66
2018-05-16T21:40:08.364Z,51.63
2018-05-16T21:42:40.909Z,51.69
2018-05-16T21:45:13.434Z,51.92
2018-05-16T21:47:45.937Z,51.77
2018-05-16T21:50:18.467Z,51.54
2018-05-16T21:52:50.973Z,51.73
2018-05-16T21:55:23.502Z,51.75
2018-05-16T21:57:55.997Z,52.54
2018-05-16T22:00:28.526Z,52.21
2018-05-16T22:03:01.032Z,52.04
2018-05-16T22:05:33.557Z,52.14
2018-05-16T22:08:06.071Z,52.17
2018-05-16T22:10:39.380Z,52.53
2018-05-16T22:13:11.882Z,52.46
2018-05-16T22:15:44.410Z,52.62
2018-05-16T22:18:16.927Z,52.80
2018-05-16T22:20:49.449Z,52.72
2018-05-16T22:23:21.959Z,52.77
2018-05-16T22:25:54.485Z,52.78
2018-05-16T22:28:26.995Z,52.76
2018-05-16T22:31:05.362Z,52.66
2018-05-16T22:33:43.471Z,52.99
2018-05-16T22:36:21.690Z,53.08
2018-05-16T22:38:59.902Z,53.31
2018-05-16T22:41:38.232Z,53.14
2018-05-16T22:44:16.915Z,53.27
2018-05-16T22:46:49.476Z,53.36
2018-05-16T22:49:22.067Z,53.52
2018-05-16T22:51:54.616Z,53.40
2018-05-16T22:54:27.205Z,53.70
2018-05-16T22:56:59.713Z,53.84
2018-05-16T22:59:32.235Z,53.92
2018-05-16T23:02:04.762Z,53.99
2018-05-16T23:04:37.964Z,54.00
2018-05-16T23:07:10.826Z,53.80
2018-05-16T23:09:43.421Z,54.14
2018-05-16T23:12:16.084Z,54.28
2018-05-16T23:14:48.612Z,53.99
2018-05-16T23:17:21.137Z,54.03
2018-05-16T23:19:53.679Z,53.95
2018-05-16T23:22:26.196Z,54.01
2018-05-16T23:24:58.730Z,54.02
2018-05-16T23:27:31.248Z,53.94
2018-05-16T23:30:03.768Z,54.01
2018-05-16T23:32:36.475Z,54.02
2018-05-16T23:35:09.265Z,54.03
2018-05-16T23:37:41.776Z,54.42
2018-05-16T23:40:14.447Z,54.63
2018-05-16T23:42:47.361Z,54.39
2018-05-16T23:45:19.897Z,54.51
2018-05-16T23:47:52.405Z,54.60
2018-05-16T23:50:24.935Z,54.78
2018-05-16T23:52:57.510Z,54.75
2018-05-16T23:55:30.082Z,54.93
2018-05-16T23:58:02.590Z,55.30
